createdAt,value
2023-04-17T00:01:46.463Z,55.47
2023-04-17T00:04:14.665Z,53.05
2023-04-17T00:06:45.340Z,59.58
2023-04-17T00:09:13.200Z,59.95
2023-04-17T00:11:40.511Z,66.03
2023-04-17T00:14:07.724Z,64.47
2023-04-17T00:16:34.908Z,56.78
2023-04-17T00:19:02.129Z,62.00
2023-04-17T00:21:32.370Z,57.63
2023-04-17T00:23:59.667Z,55.65
2023-04-17T00:26:26.840Z,61.67
2023-04-17T00:28:54.018Z,71.68
2023-04-17T00:31:21.246Z,56.83
2023-04-17T00:33:48.444Z,51.53
2023-04-17T00:36:15.714Z,65.03
2023-04-17T00:38:43.079Z,56.33
2023-04-17T00:41:10.968Z,56.72
2023-04-17T00:43:38.619Z,63.00
2023-04-17T00:46:06.443Z,57.40
2023-04-17T00:48:34.667Z,63.75
2023-04-17T00:51:03.259Z,56.40
2023-04-17T00:53:31.786Z,54.58
2023-04-17T00:56:04.272Z,68.65
2023-04-17T00:58:31.765Z,52.60
2023-04-17T01:00:59.030Z,48.85
2023-04-17T01:03:26.451Z,50.13
2023-04-17T01:05:53.771Z,52.10
2023-04-17T01:08:20.948Z,49.67
2023-04-17T01:10:48.122Z,54.15
2023-04-17T01:13:15.624Z,50.83
2023-04-17T01:15:43.096Z,52.25
2023-04-17T01:18:10.383Z,51.08
2023-04-17T01:20:37.743Z,46.40
2023-04-17T01:23:05.450Z,44.65
2023-04-17T01:25:32.685Z,46.38
2023-04-17T01:27:59.938Z,51.03
2023-04-17T01:30:27.295Z,43.22
2023-04-17T01:32:55.932Z,40.70
2023-04-17T01:35:23.606Z,46.40
2023-04-17T01:37:51.181Z,36.85
2023-04-17T01:40:18.409Z,38.08
2023-04-17T01:42:45.631Z,38.20
2023-04-17T01:45:12.801Z,41.58
2023-04-17T01:47:40.097Z,43.25
2023-04-17T01:50:09.117Z,32.80
2023-04-17T01:52:36.617Z,39.85
2023-04-17T01:55:04.391Z,38.40
2023-04-17T01:57:31.804Z,41.58
2023-04-17T01:59:58.982Z,36.50
2023-04-17T02:02:26.539Z,45.40
2023-04-17T02:04:53.872Z,36.90
2023-04-17T02:07:21.684Z,37.95
2023-04-17T02:09:48.833Z,42.65
2023-04-17T02:12:16.682Z,52.00
2023-04-17T02:14:43.872Z,43.22
2023-04-17T02:17:11.181Z,46.08
2023-04-17T02:19:38.325Z,47.20
2023-04-17T02:22:05.646Z,39.85
2023-04-17T02:24:32.857Z,40.40
2023-04-17T02:27:00.241Z,38.03
2023-04-17T02:29:27.393Z,38.40
2023-04-17T02:31:54.553Z,39.35
2023-04-17T02:34:21.673Z,35.38
2023-04-17T02:36:48.835Z,35.83
2023-04-17T02:39:16.023Z,35.63
2023-04-17T02:41:43.204Z,39.30
2023-04-17T02:44:10.425Z,38.78
2023-04-17T02:46:38.436Z,38.30
2023-04-17T02:49:05.794Z,41.10
2023-04-17T02:51:32.987Z,42.03
2023-04-17T02:54:00.350Z,98.30
2023-04-17T02:56:27.658Z,124.93
2023-04-17T02:58:54.779Z,141.55
2023-04-17T03:01:22.824Z,117.95
2023-04-17T03:03:50.430Z,61.92
2023-04-17T03:06:17.691Z,49.83
2023-04-17T03:08:45.263Z,41.65
2023-04-17T03:11:12.433Z,46.10
2023-04-17T03:13:39.594Z,42.92
2023-04-17T03:16:07.063Z,39.33
2023-04-17T03:18:35.543Z,44.08
2023-04-17T03:21:02.722Z,35.33
2023-04-17T03:23:29.856Z,41.45
2023-04-17T03:25:57.138Z,44.05
2023-04-17T03:28:24.326Z,47.70
2023-04-17T03:30:52.034Z,43.78
2023-04-17T03:33:19.172Z,45.85
2023-04-17T03:35:46.647Z,41.75
2023-04-17T03:38:13.837Z,37.38
2023-04-17T03:40:41.964Z,41.13
2023-04-17T03:43:09.162Z,36.95
2023-04-17T03:45:36.455Z,40.95
2023-04-17T03:48:03.910Z,45.25
2023-04-17T03:50:31.277Z,42.08
2023-04-17T03:52:58.459Z,39.08
2023-04-17T03:55:25.720Z,40.08
2023-04-17T03:57:53.016Z,42.05
2023-04-17T04:00:21.843Z,40.88
2023-04-17T04:02:49.692Z,37.92
2023-04-17T04:05:17.076Z,38.30
2023-04-17T04:07:44.249Z,37.15
2023-04-17T04:10:11.634Z,39.28
2023-04-17T04:12:38.855Z,37.92
2023-04-17T04:15:06.328Z,45.35
2023-04-17T04:17:33.574Z,41.38
2023-04-17T04:20:00.818Z,40.88
2023-04-17T04:22:29.206Z,37.55
2023-04-17T04:24:56.418Z,41.42
2023-04-17T04:27:23.711Z,35.25
2023-04-17T04:29:50.869Z,41.63
2023-04-17T04:32:18.008Z,40.92
2023-04-17T04:34:45.291Z,41.78
2023-04-17T04:37:15.676Z,41.85
2023-04-17T04:39:43.413Z,45.50
2023-04-17T04:42:10.735Z,38.63
2023-04-17T04:44:38.055Z,42.38
2023-04-17T04:47:05.297Z,37.55
2023-04-17T04:49:32.601Z,39.10
2023-04-17T04:51:59.730Z,39.72
2023-04-17T04:54:26.987Z,41.47
2023-04-17T04:56:54.258Z,42.00
2023-04-17T04:59:21.507Z,38.83
2023-04-17T05:01:49.336Z,42.83
2023-04-17T05:04:17.141Z,45.55
2023-04-17T05:06:44.369Z,38.97
2023-04-17T05:09:12.173Z,29.85
2023-04-17T05:11:40.289Z,37.58
2023-04-17T05:14:07.448Z,37.03
2023-04-17T05:16:34.605Z,41.38
2023-04-17T05:19:01.807Z,34.42
2023-04-17T05:21:31.127Z,39.80
2023-04-17T05:23:58.410Z,35.38
2023-04-17T05:26:25.577Z,33.15
2023-04-17T05:28:52.763Z,29.10
2023-04-17T05:31:20.828Z,33.47
2023-04-17T05:33:48.026Z,101.65
2023-04-17T05:36:15.163Z,33.75
2023-04-17T05:38:44.077Z,58.92
2023-04-17T05:41:12.811Z,42.50
2023-04-17T05:43:40.008Z,35.13
2023-04-17T05:46:07.191Z,32.38
2023-04-17T05:48:34.485Z,39.75
2023-04-17T05:51:01.791Z,32.05
2023-04-17T05:53:31.288Z,30.85
2023-04-17T05:55:58.770Z,38.28
2023-04-17T05:58:25.945Z,29.33
2023-04-17T06:00:53.193Z,41.80
2023-04-17T06:03:21.271Z,37.13
2023-04-17T06:05:48.738Z,31.05
2023-04-17T06:08:16.398Z,33.33
2023-04-17T06:10:45.892Z,29.80
2023-04-17T06:13:13.464Z,30.27
2023-04-17T06:15:40.696Z,26.20
2023-04-17T06:18:07.952Z,38.30
2023-04-17T06:20:35.293Z,32.17
2023-04-17T06:23:02.904Z,27.10
2023-04-17T06:25:30.062Z,26.45
2023-04-17T06:27:57.271Z,26.42
2023-04-17T06:30:24.512Z,25.58
2023-04-17T06:32:51.839Z,27.05
2023-04-17T06:35:19.109Z,21.92
2023-04-17T06:37:46.360Z,22.20
2023-04-17T06:40:13.755Z,24.15
2023-04-17T06:42:41.436Z,23.63
2023-04-17T06:45:08.976Z,25.00
2023-04-17T06:47:36.166Z,21.17
2023-04-17T06:50:03.613Z,22.67
2023-04-17T06:52:31.301Z,19.65
2023-04-17T06:54:59.988Z,21.63
2023-04-17T06:57:29.664Z,20.65
2023-04-17T06:59:56.938Z,19.40
2023-04-17T07:02:24.467Z,78.05
2023-04-17T07:04:53.405Z,39.95
2023-04-17T07:07:20.589Z,28.45
2023-04-17T07:09:48.334Z,64.72
2023-04-17T07:12:16.092Z,65.38
2023-04-17T07:14:44.034Z,213.70
2023-04-17T07:17:11.162Z,35.13
2023-04-17T07:19:38.866Z,16.70
2023-04-17T07:22:06.282Z,18.45
2023-04-17T07:24:36.252Z,25.83
2023-04-17T07:27:04.067Z,14.57
2023-04-17T07:29:31.618Z,11.82
2023-04-17T07:31:58.850Z,11.60
2023-04-17T07:34:26.135Z,13.35
2023-04-17T07:36:53.915Z,23.17
2023-04-17T07:39:21.071Z,31.05
2023-04-17T07:41:48.236Z,12.50
2023-04-17T07:44:16.132Z,10.88
2023-04-17T07:46:45.168Z,11.20
2023-04-17T07:49:12.816Z,11.43
2023-04-17T07:51:41.414Z,7.60
2023-04-17T07:54:08.713Z,10.43
2023-04-17T07:56:36.614Z,9.25
2023-04-17T07:59:04.701Z,8.75
2023-04-17T08:01:32.138Z,7.90
2023-04-17T08:03:59.795Z,19.02
2023-04-17T08:06:27.433Z,12.90
2023-04-17T08:08:54.767Z,14.57
2023-04-17T08:11:22.413Z,10.80
2023-04-17T08:13:52.549Z,33.70
2023-04-17T08:16:19.992Z,19.52
2023-04-17T08:18:47.292Z,11.27
2023-04-17T08:21:14.500Z,12.32
2023-04-17T08:23:41.925Z,7.75
2023-04-17T08:26:09.069Z,8.05
2023-04-17T08:28:36.225Z,7.80
2023-04-17T08:31:03.498Z,4.93
2023-04-17T08:33:30.968Z,4.40
2023-04-17T08:35:58.130Z,6.30
2023-04-17T08:38:27.243Z,5.43
2023-04-17T08:40:54.914Z,4.80
2023-04-17T08:43:22.311Z,5.70
2023-04-17T08:45:54.108Z,12.18
2023-04-17T08:48:25.340Z,13.98
2023-04-17T08:50:53.556Z,31.77
2023-04-17T08:53:21.122Z,10.18
2023-04-17T08:55:48.643Z,6.82
2023-04-17T08:58:15.975Z,11.75
2023-04-17T09:00:44.005Z,27.90
2023-04-17T09:03:13.159Z,38.50
2023-04-17T09:05:48.574Z,25.25
2023-04-17T09:08:17.130Z,20.08
2023-04-17T09:10:45.304Z,9.25
2023-04-17T09:13:16.491Z,16.10
2023-04-17T09:15:44.631Z,10.30
2023-04-17T09:18:28.231Z,6.30
2023-04-17T09:20:57.613Z,20.08
2023-04-17T09:23:24.773Z,14.48
2023-04-17T09:26:10.883Z,7.30
2023-04-17T09:28:43.599Z,13.85
2023-04-17T09:31:20.081Z,7.67
2023-04-17T09:33:56.832Z,12.85
2023-04-17T09:36:24.050Z,7.30
2023-04-17T09:38:51.760Z,22.30
2023-04-17T09:41:28.973Z,8.70
2023-04-17T09:43:57.074Z,8.32
2023-04-17T09:46:33.363Z,8.05
2023-04-17T09:49:01.809Z,6.18
2023-04-17T09:51:29.005Z,6.82
2023-04-17T09:53:57.330Z,8.52
2023-04-17T09:56:24.540Z,8.85
2023-04-17T09:58:52.424Z,9.00
2023-04-17T10:01:20.123Z,8.13
2023-04-17T10:03:47.771Z,8.38
2023-04-17T10:06:15.710Z,9.70
2023-04-17T10:08:42.871Z,9.93
2023-04-17T10:11:10.432Z,9.65
2023-04-17T10:13:38.873Z,8.18
2023-04-17T10:16:06.635Z,8.85
2023-04-17T10:18:33.854Z,13.75
2023-04-17T10:21:22.019Z,9.25
2023-04-17T10:23:49.423Z,8.48
2023-04-17T10:26:25.684Z,9.13
2023-04-17T10:28:53.807Z,9.43
2023-04-17T10:31:21.891Z,35.60
2023-04-17T10:33:49.932Z,27.83
2023-04-17T10:36:36.714Z,29.48
2023-04-17T10:39:16.760Z,20.05
2023-04-17T10:42:03.233Z,17.83
2023-04-17T10:44:39.978Z,18.83
2023-04-17T10:47:08.094Z,22.52
2023-04-17T10:50:10.899Z,22.35
2023-04-17T10:52:38.717Z,20.02
2023-04-17T10:55:09.884Z,20.70
2023-04-17T10:57:55.801Z,21.23
2023-04-17T11:00:31.314Z,21.80
2023-04-17T11:02:59.042Z,25.13
2023-04-17T11:05:26.644Z,25.02
2023-04-17T11:07:53.949Z,23.27
2023-04-17T11:10:21.574Z,23.52
2023-04-17T11:12:49.644Z,21.45
2023-04-17T11:15:17.893Z,20.90
2023-04-17T11:17:48.548Z,23.08
2023-04-17T11:20:17.540Z,24.63
2023-04-17T11:22:45.076Z,21.40
2023-04-17T11:25:22.547Z,22.45
2023-04-17T11:27:56.958Z,24.42
2023-04-17T11:30:25.491Z,21.23
2023-04-17T11:32:53.570Z,21.02
2023-04-17T11:35:24.877Z,22.90
2023-04-17T11:38:17.921Z,23.90
2023-04-17T11:40:46.108Z,46.70
2023-04-17T11:43:13.670Z,49.25
2023-04-17T11:45:42.016Z,85.45
2023-04-17T11:48:10.481Z,38.88
2023-04-17T11:50:38.319Z,41.00
2023-04-17T11:53:06.324Z,42.03
2023-04-17T11:55:34.596Z,112.13
2023-04-17T11:58:04.065Z,45.88
2023-04-17T12:00:31.879Z,59.72
2023-04-17T12:03:00.107Z,52.80
2023-04-17T12:05:28.199Z,39.47
2023-04-17T12:08:02.897Z,28.75
2023-04-17T12:10:40.748Z,34.47
2023-04-17T12:13:08.074Z,30.02
2023-04-17T12:15:35.767Z,38.28
2023-04-17T12:18:06.480Z,26.50
2023-04-17T12:20:34.635Z,30.55
2023-04-17T12:23:02.060Z,40.72
2023-04-17T12:25:29.276Z,40.58
2023-04-17T12:27:57.516Z,34.15
2023-04-17T12:30:24.784Z,31.30
2023-04-17T12:32:52.334Z,24.25
2023-04-17T12:35:20.385Z,26.33
2023-04-17T12:37:51.359Z,29.92
2023-04-17T12:40:21.391Z,25.80
2023-04-17T12:42:50.391Z,25.92
2023-04-17T12:45:20.885Z,22.83
2023-04-17T12:47:48.069Z,25.02
2023-04-17T12:50:15.683Z,25.77
2023-04-17T12:52:42.941Z,23.58
2023-04-17T12:55:10.482Z,24.20
2023-04-17T12:57:37.696Z,27.63
2023-04-17T13:00:09.668Z,24.17
2023-04-17T13:02:37.270Z,23.33
2023-04-17T13:05:06.970Z,27.27
2023-04-17T13:07:34.458Z,27.70
2023-04-17T13:10:01.681Z,24.05
2023-04-17T13:12:29.231Z,25.73
2023-04-17T13:14:57.686Z,22.65
2023-04-17T13:17:25.475Z,19.98
2023-04-17T13:19:52.721Z,22.05
2023-04-17T13:22:22.992Z,19.55
2023-04-17T13:24:50.219Z,21.10
2023-04-17T13:27:17.441Z,20.38
2023-04-17T13:29:44.817Z,20.52
2023-04-17T13:32:12.030Z,22.55
2023-04-17T13:34:39.187Z,17.17
2023-04-17T13:37:07.288Z,18.33
2023-04-17T13:39:34.508Z,15.52
2023-04-17T13:42:02.111Z,21.70
2023-04-17T13:44:29.314Z,18.08
2023-04-17T13:46:56.474Z,16.58
2023-04-17T13:49:23.618Z,14.73
2023-04-17T13:51:50.840Z,20.70
2023-04-17T13:54:18.889Z,19.95
2023-04-17T13:56:48.739Z,21.70
2023-04-17T13:59:16.097Z,16.50
2023-04-17T14:01:43.395Z,39.40
2023-04-17T14:04:10.827Z,34.92
2023-04-17T14:06:38.395Z,23.52
2023-04-17T14:09:06.033Z,17.27
2023-04-17T14:11:33.202Z,17.65
2023-04-17T14:14:00.599Z,25.27
2023-04-17T14:16:28.058Z,17.65
2023-04-17T14:18:57.869Z,20.15
2023-04-17T14:21:27.714Z,16.95
2023-04-17T14:23:56.799Z,21.88
2023-04-17T14:26:24.113Z,36.70
2023-04-17T14:28:51.258Z,26.63
2023-04-17T14:31:18.497Z,34.53
2023-04-17T14:33:45.808Z,35.92
2023-04-17T14:36:12.954Z,40.63
2023-04-17T14:38:40.139Z,81.82
2023-04-17T14:41:07.319Z,18.45
2023-04-17T14:43:34.569Z,16.65
2023-04-17T14:46:01.757Z,19.77
2023-04-17T14:48:31.364Z,26.23
2023-04-17T14:51:01.792Z,21.38
2023-04-17T14:53:29.028Z,36.17
2023-04-17T14:55:56.516Z,37.45
2023-04-17T14:58:23.726Z,19.98
2023-04-17T15:00:50.960Z,24.65
2023-04-17T15:03:18.261Z,19.25
2023-04-17T15:05:46.323Z,34.47
2023-04-17T15:08:13.745Z,27.95
2023-04-17T15:10:50.798Z,16.60
2023-04-17T15:13:18.869Z,32.58
2023-04-17T15:15:46.044Z,25.77
2023-04-17T15:18:13.180Z,25.20
2023-04-17T15:20:40.563Z,17.80
2023-04-17T15:23:07.719Z,19.23
2023-04-17T15:25:34.901Z,16.23
2023-04-17T15:28:02.718Z,16.98
2023-04-17T15:30:30.092Z,24.40
2023-04-17T15:32:57.400Z,15.95
2023-04-17T15:35:24.548Z,16.63
2023-04-17T15:37:51.808Z,13.88
2023-04-17T15:40:19.010Z,17.15
2023-04-17T15:42:46.748Z,23.13
2023-04-17T15:45:14.125Z,21.30
2023-04-17T15:47:41.334Z,19.90
2023-04-17T15:50:09.087Z,18.48
2023-04-17T15:52:36.477Z,15.23
2023-04-17T15:55:03.889Z,13.02
2023-04-17T15:57:31.045Z,15.80
2023-04-17T16:00:00.342Z,23.70
2023-04-17T16:02:27.760Z,15.35
2023-04-17T16:04:57.126Z,19.85
2023-04-17T16:07:24.880Z,18.83
2023-04-17T16:09:52.082Z,13.55
2023-04-17T16:12:19.464Z,14.23
2023-04-17T16:14:47.456Z,17.42
2023-04-17T16:17:14.685Z,15.75
2023-04-17T16:19:41.917Z,17.45
2023-04-17T16:22:09.062Z,22.88
2023-04-17T16:24:36.508Z,13.00
2023-04-17T16:27:04.241Z,15.73
2023-04-17T16:29:31.527Z,18.08
2023-04-17T16:32:00.151Z,12.25
2023-04-17T16:34:27.391Z,15.00
2023-04-17T16:36:54.521Z,13.50
2023-04-17T16:39:21.716Z,11.80
2023-04-17T16:41:48.919Z,40.75
2023-04-17T16:44:16.627Z,27.52
2023-04-17T16:47:03.169Z,20.25
2023-04-17T16:49:30.989Z,16.27
2023-04-17T16:51:59.378Z,11.70
2023-04-17T16:54:26.529Z,13.85
2023-04-17T16:56:53.724Z,14.65
2023-04-17T16:59:21.016Z,13.63
2023-04-17T17:01:49.735Z,12.52
2023-04-17T17:04:17.156Z,13.43
2023-04-17T17:06:44.347Z,17.55
2023-04-17T17:09:11.888Z,12.55
2023-04-17T17:11:39.161Z,13.75
2023-04-17T17:14:06.387Z,17.75
2023-04-17T17:16:33.616Z,11.90
2023-04-17T17:19:01.375Z,13.07
2023-04-17T17:21:28.941Z,13.57
2023-04-17T17:23:56.204Z,14.65
2023-04-17T17:26:23.357Z,18.15
2023-04-17T17:28:54.254Z,14.05
2023-04-17T17:31:21.534Z,17.17
2023-04-17T17:33:50.243Z,14.57
2023-04-17T17:36:17.709Z,31.27
2023-04-17T17:38:45.216Z,22.00
2023-04-17T17:41:12.630Z,18.88
2023-04-17T17:43:40.111Z,19.20
2023-04-17T17:46:07.284Z,14.50
2023-04-17T17:48:35.523Z,38.17
2023-04-17T17:51:02.645Z,27.27
2023-04-17T17:53:29.838Z,18.52
2023-04-17T17:55:57.540Z,18.33
2023-04-17T17:58:25.296Z,13.32
2023-04-17T18:00:52.577Z,14.27
2023-04-17T18:03:21.295Z,13.45
2023-04-17T18:05:48.517Z,18.45
2023-04-17T18:08:15.690Z,16.63
2023-04-17T18:10:43.439Z,15.60
2023-04-17T18:13:10.849Z,19.75
2023-04-17T18:15:38.053Z,18.50
2023-04-17T18:18:05.569Z,17.10
2023-04-17T18:20:32.699Z,16.15
2023-04-17T18:22:59.876Z,17.75
2023-04-17T18:25:27.050Z,16.27
2023-04-17T18:27:57.725Z,19.70
2023-04-17T18:30:25.017Z,19.73
2023-04-17T18:32:52.300Z,18.25
2023-04-17T18:35:19.581Z,20.67
2023-04-17T18:37:46.762Z,17.50
2023-04-17T18:40:14.086Z,16.95
2023-04-17T18:42:41.323Z,20.30
2023-04-17T18:45:08.773Z,22.77
2023-04-17T18:47:36.332Z,18.67
2023-04-17T18:50:04.773Z,20.50
2023-04-17T18:52:32.058Z,22.45
2023-04-17T18:54:59.206Z,19.10
2023-04-17T18:57:26.567Z,22.35
2023-04-17T18:59:53.681Z,19.52
2023-04-17T19:02:21.562Z,22.15
2023-04-17T19:04:48.724Z,25.20
2023-04-17T19:07:16.108Z,30.25
2023-04-17T19:09:44.726Z,27.67
2023-04-17T19:12:12.412Z,29.13
2023-04-17T19:14:39.924Z,36.65
2023-04-17T19:17:07.102Z,35.22
2023-04-17T19:19:34.303Z,28.08
2023-04-17T19:22:01.459Z,32.17
2023-04-17T19:24:28.609Z,37.42
2023-04-17T19:26:55.869Z,27.73
2023-04-17T19:29:26.099Z,24.25
2023-04-17T19:31:53.494Z,24.85
2023-04-17T19:34:20.806Z,37.88
2023-04-17T19:36:48.048Z,29.05
2023-04-17T19:39:15.721Z,40.25
2023-04-17T19:41:46.037Z,39.80
2023-04-17T19:44:14.626Z,30.90
2023-04-17T19:46:41.751Z,29.77
2023-04-17T19:49:08.968Z,27.30
2023-04-17T19:51:36.177Z,31.48
2023-04-17T19:54:03.370Z,25.85
2023-04-17T19:56:30.577Z,25.08
2023-04-17T19:59:04.261Z,32.40
2023-04-17T20:01:31.965Z,32.30
2023-04-17T20:03:59.599Z,30.30
2023-04-17T20:06:26.898Z,30.23
2023-04-17T20:08:56.357Z,28.48
2023-04-17T20:11:23.740Z,34.13
2023-04-17T20:13:52.305Z,39.15
2023-04-17T20:16:19.671Z,33.47
2023-04-17T20:18:47.006Z,34.95
2023-04-17T20:21:14.210Z,34.67
2023-04-17T20:23:41.626Z,42.22
2023-04-17T20:26:08.817Z,32.22
2023-04-17T20:28:36.018Z,30.42
2023-04-17T20:31:04.062Z,33.90
2023-04-17T20:33:31.447Z,38.70
2023-04-17T20:35:58.631Z,46.75
2023-04-17T20:38:26.148Z,41.80
2023-04-17T20:40:53.313Z,38.70
2023-04-17T20:43:20.494Z,35.30
2023-04-17T20:45:49.280Z,38.20
2023-04-17T20:48:16.659Z,43.60
2023-04-17T20:50:43.909Z,46.10
2023-04-17T20:53:11.092Z,36.67
2023-04-17T20:55:38.592Z,41.45
2023-04-17T20:58:06.049Z,69.20
2023-04-17T21:00:34.638Z,41.88
2023-04-17T21:03:02.063Z,45.22
2023-04-17T21:05:29.304Z,52.53
2023-04-17T21:07:57.720Z,45.60
2023-04-17T21:10:25.032Z,42.80
2023-04-17T21:12:52.201Z,53.90
2023-04-17T21:15:19.409Z,50.55
2023-04-17T21:17:46.892Z,42.72
2023-04-17T21:20:14.314Z,53.72
2023-04-17T21:22:41.747Z,66.97
2023-04-17T21:25:09.916Z,51.90
2023-04-17T21:27:37.043Z,63.78
2023-04-17T21:30:04.446Z,56.17
2023-04-17T21:32:31.723Z,67.00
2023-04-17T21:34:59.118Z,63.67
2023-04-17T21:37:26.233Z,58.53
2023-04-17T21:39:53.574Z,48.95
2023-04-17T21:42:20.763Z,58.65
2023-04-17T21:44:47.888Z,62.42
2023-04-17T21:47:16.557Z,48.90
2023-04-17T21:49:46.978Z,52.25
2023-04-17T21:52:14.494Z,65.65
2023-04-17T21:54:42.118Z,51.17
2023-04-17T21:57:09.312Z,62.60
2023-04-17T21:59:36.606Z,69.55
2023-04-17T22:02:04.504Z,64.32
2023-04-17T22:04:31.839Z,68.35
2023-04-17T22:06:59.132Z,65.97
2023-04-17T22:09:28.425Z,68.07
2023-04-17T22:11:57.128Z,74.80
2023-04-17T22:14:24.342Z,72.43
2023-04-17T22:16:51.552Z,80.45
2023-04-17T22:19:18.761Z,70.60
2023-04-17T22:21:45.899Z,63.28
2023-04-17T22:24:13.204Z,74.55
2023-04-17T22:26:40.568Z,74.20
2023-04-17T22:29:07.814Z,82.93
2023-04-17T22:31:35.018Z,72.55
2023-04-17T22:34:02.241Z,78.55
2023-04-17T22:36:29.363Z,82.85
2023-04-17T22:38:56.741Z,80.63
2023-04-17T22:41:23.881Z,70.10
2023-04-17T22:43:51.032Z,76.65
2023-04-17T22:46:20.877Z,75.43
2023-04-17T22:48:49.638Z,83.47
2023-04-17T22:51:17.709Z,74.28
2023-04-17T22:53:44.840Z,61.90
2023-04-17T22:56:12.674Z,54.45
2023-04-17T22:58:40.083Z,69.18
2023-04-17T23:01:07.415Z,67.05
2023-04-17T23:03:35.290Z,66.97
2023-04-17T23:06:03.240Z,66.88
2023-04-17T23:08:31.001Z,63.40
2023-04-17T23:10:59.749Z,55.22
2023-04-17T23:13:27.795Z,49.40
2023-04-17T23:15:55.089Z,58.13
2023-04-17T23:18:22.591Z,50.25
2023-04-17T23:20:49.885Z,51.92
2023-04-17T23:23:18.761Z,63.88
2023-04-17T23:25:46.264Z,53.90
2023-04-17T23:28:14.455Z,60.28
2023-04-17T23:30:41.575Z,46.53
2023-04-17T23:33:09.683Z,49.60
2023-04-17T23:35:36.988Z,47.90
2023-04-17T23:38:04.412Z,47.90
2023-04-17T23:40:32.798Z,48.75
2023-04-17T23:43:01.144Z,52.55
2023-04-17T23:45:28.364Z,50.17
2023-04-17T23:47:55.564Z,46.92
2023-04-17T23:50:22.788Z,49.20
2023-04-17T23:52:50.099Z,45.90
2023-04-17T23:55:17.456Z,47.92
2023-04-17T23:57:44.606Z,52.45
